Isle of Mull, United Kingdom

8:14 AM GMT on February 12, 2016 (GMT +0000)
Oban Weather | | Change Station
CLOSE
Current Station
Personal Weather Station
Location: Oban, ARGYLL
Elevation: 59 ft
Nearby Weather Stations

Elev 59 ft 56.41 °N, 5.47 °W | Updated 3 seconds ago

Clear
Clear
31.3 °F
Feels Like 31 °F
N
0.0
Wind Variable Wind from West
Gusts 2.2 mph

Today
High -- | Low -- °F
--% Chance of Precip.
Yesterday
High -- | Low -- °F
Precip. -- in
Pressure 29.42 in
Visibility 6.2 miles
Clouds
Windchill 31 °F
Dew Point 21 °F
Humidity 66%
Rainfall 0.00 in
Snow Depth Not available.
7:57 AM 5:17 PM
Waxing Crescent, 18% visible
METAR EGPU 120750Z AUTO 10010KT 9999 NCD 01/M02 Q0996
Pressure 29.42 in
Visibility 6.2 miles
Clouds
Windchill 31 °F
Dew Point 21 °F
Humidity 66%
Rainfall 0.00 in
Snow Depth Not available.
7:57 AM 5:17 PM
Waxing Crescent, 18% visible
METAR EGPU 120750Z AUTO 10010KT 9999 NCD 01/M02 Q0996

10-Day Weather Forecast

Almanac

Astronomy

Feb. 12, 2016 Rise Set
Actual Time
Civil Twilight
Nautical Twilight
Astronomical Twilight
Moon
Length of Visible Light
Length of Day
Tomorrow will be .
, % of the Moon is Illuminated

Today's Extremes

Country Highs Country Lows

Community

WunderPhotos

Upload Photos

1,892,278 photos uploaded!

WunderBlog® & News

Nearby

Air Quality

  Air Quality AQ Index Pollutant
Not available.

Snow Depth

Station Depth Elevation

Earthquake Activity

City Distance Mag. Time & Date
Minimum magnitude displayed is 2.5.

Coastal Water Temperatures

Place Temperature

Stations

Nearby Weather Stations

Station Location Temp. Windchill Dew Point Humidity Wind Precip. Elev Updated Type